sensor_id;sensor_type;location;lat;lon;timestamp;temperature;humidity
44833;DHT22;30569;51.252;9.830;2022-07-23T00:00:34;17.10;99.90
44833;DHT22;30569;51.252;9.830;2022-07-23T00:03:00;17.20;99.90
44833;DHT22;30569;51.252;9.830;2022-07-23T00:05:25;17.10;99.90
44833;DHT22;30569;51.252;9.830;2022-07-23T00:07:51;17.00;99.90
44833;DHT22;30569;51.252;9.830;2022-07-23T00:10:17;16.80;99.90
44833;DHT22;30569;51.252;9.830;2022-07-23T00:12:43;16.80;99.90
44833;DHT22;30569;51.252;9.830;2022-07-23T00:15:09;16.70;99.90
44833;DHT22;30569;51.252;9.830;2022-07-23T00:17:34;16.70;99.90
44833;DHT22;30569;51.252;9.830;2022-07-23T00:20:00;16.60;99.90
44833;DHT22;30569;51.252;9.830;2022-07-23T00:22:26;16.70;99.90
44833;DHT22;30569;51.252;9.830;2022-07-23T00:24:53;16.80;99.90
44833;DHT22;30569;51.252;9.830;2022-07-23T00:27:18;16.80;99.90
44833;DHT22;30569;51.252;9.830;2022-07-23T00:29:44;16.80;99.90
44833;DHT22;30569;51.252;9.830;2022-07-23T00:32:10;16.60;99.90
44833;DHT22;30569;51.252;9.830;2022-07-23T00:34:35;16.60;99.90
44833;DHT22;30569;51.252;9.830;2022-07-23T00:37:01;16.50;99.90
44833;DHT22;30569;51.252;9.830;2022-07-23T00:39:26;16.60;99.90
44833;DHT22;30569;51.252;9.830;2022-07-23T00:41:52;16.60;99.90
44833;DHT22;30569;51.252;9.830;2022-07-23T00:44:22;16.60;99.90
44833;DHT22;30569;51.252;9.830;2022-07-23T00:46:50;18.70;99.90
44833;DHT22;30569;51.252;9.830;2022-07-23T00:49:30;16.50;99.90
44833;DHT22;30569;51.252;9.830;2022-07-23T00:51:56;16.60;99.90
44833;DHT22;30569;51.252;9.830;2022-07-23T00:54:24;16.50;99.90
44833;DHT22;30569;51.252;9.830;2022-07-23T00:56:50;16.50;99.90
44833;DHT22;30569;51.252;9.830;2022-07-23T00:59:16;16.50;99.90
44833;DHT22;30569;51.252;9.830;2022-07-23T01:01:42;16.60;99.90
44833;DHT22;30569;51.252;9.830;2022-07-23T01:04:09;16.90;99.90
44833;DHT22;30569;51.252;9.830;2022-07-23T01:06:37;16.90;99.90
44833;DHT22;30569;51.252;9.830;2022-07-23T01:09:04;17.00;99.90
44833;DHT22;30569;51.252;9.830;2022-07-23T01:11:32;16.80;99.90
44833;DHT22;30569;51.252;9.830;2022-07-23T01:13:58;16.70;99.90
44833;DHT22;30569;51.252;9.830;2022-07-23T01:16:24;16.70;99.90
44833;DHT22;30569;51.252;9.830;2022-07-23T01:18:49;16.80;99.90
44833;DHT22;30569;51.252;9.830;2022-07-23T01:21:18;16.80;99.90
44833;DHT22;30569;51.252;9.830;2022-07-23T01:23:44;16.80;99.90
44833;DHT22;30569;51.252;9.830;2022-07-23T01:26:09;16.70;99.90
44833;DHT22;30569;51.252;9.830;2022-07-23T01:28:35;16.60;99.90
44833;DHT22;30569;51.252;9.830;2022-07-23T01:31:00;16.70;99.90
44833;DHT22;30569;51.252;9.830;2022-07-23T01:33:26;16.60;99.90
44833;DHT22;30569;51.252;9.830;2022-07-23T01:35:51;16.60;99.90
44833;DHT22;30569;51.252;9.830;2022-07-23T01:38:17;16.60;99.90
44833;DHT22;30569;51.252;9.830;2022-07-23T01:40:42;16.60;99.90
44833;DHT22;30569;51.252;9.830;2022-07-23T01:43:08;16.70;99.90
44833;DHT22;30569;51.252;9.830;2022-07-23T01:45:33;16.70;99.90
44833;DHT22;30569;51.252;9.830;2022-07-23T01:47:59;16.60;99.90
44833;DHT22;30569;51.252;9.830;2022-07-23T01:50:24;16.60;99.90
44833;DHT22;30569;51.252;9.830;2022-07-23T01:52:50;16.50;99.90
44833;DHT22;30569;51.252;9.830;2022-07-23T01:55:15;16.50;99.90
44833;DHT22;30569;51.252;9.830;2022-07-23T01:57:41;16.50;99.90
44833;DHT22;30569;51.252;9.830;2022-07-23T02:00:07;16.50;99.90
44833;DHT22;30569;51.252;9.830;2022-07-23T02:02:33;16.40;99.90
44833;DHT22;30569;51.252;9.830;2022-07-23T02:04:59;16.50;99.90
44833;DHT22;30569;51.252;9.830;2022-07-23T02:07:24;16.50;99.90
44833;DHT22;30569;51.252;9.830;2022-07-23T02:09:50;16.50;99.90
44833;DHT22;30569;51.252;9.830;2022-07-23T02:12:15;16.60;99.90
44833;DHT22;30569;51.252;9.830;2022-07-23T02:14:41;16.50;99.90
44833;DHT22;30569;51.252;9.830;2022-07-23T02:17:06;16.50;99.90
44833;DHT22;30569;51.252;9.830;2022-07-23T02:19:32;17.00;99.90
44833;DHT22;30569;51.252;9.830;2022-07-23T02:21:57;17.10;99.90
44833;DHT22;30569;51.252;9.830;2022-07-23T02:24:23;16.80;99.90
44833;DHT22;30569;51.252;9.830;2022-07-23T02:26:48;16.80;99.90
44833;DHT22;30569;51.252;9.830;2022-07-23T02:29:14;16.70;99.90
44833;DHT22;30569;51.252;9.830;2022-07-23T02:31:40;16.60;99.90
44833;DHT22;30569;51.252;9.830;2022-07-23T02:36:32;16.40;99.90
44833;DHT22;30569;51.252;9.830;2022-07-23T02:38:57;16.50;99.90
44833;DHT22;30569;51.252;9.830;2022-07-23T02:41:23;16.50;99.90
44833;DHT22;30569;51.252;9.830;2022-07-23T02:43:49;16.50;99.90
44833;DHT22;30569;51.252;9.830;2022-07-23T02:46:14;16.50;99.90
44833;DHT22;30569;51.252;9.830;2022-07-23T02:48:40;16.50;99.90
44833;DHT22;30569;51.252;9.830;2022-07-23T02:51:05;16.60;99.90
44833;DHT22;30569;51.252;9.830;2022-07-23T02:53:31;16.60;99.90
44833;DHT22;30569;51.252;9.830;2022-07-23T02:55:57;16.50;99.90
44833;DHT22;30569;51.252;9.830;2022-07-23T02:58:22;16.50;99.90
44833;DHT22;30569;51.252;9.830;2022-07-23T03:00:48;16.50;99.90
44833;DHT22;30569;51.252;9.830;2022-07-23T03:03:14;16.40;99.90
44833;DHT22;30569;51.252;9.830;2022-07-23T03:05:40;16.70;99.90
44833;DHT22;30569;51.252;9.830;2022-07-23T03:08:05;16.70;99.90
44833;DHT22;30569;51.252;9.830;2022-07-23T03:10:31;16.70;99.90
44833;DHT22;30569;51.252;9.830;2022-07-23T03:12:56;16.70;99.90
44833;DHT22;30569;51.252;9.830;2022-07-23T03:15:22;16.50;99.90
44833;DHT22;30569;51.252;9.830;2022-07-23T03:17:48;16.50;99.90
44833;DHT22;30569;51.252;9.830;2022-07-23T03:20:13;16.40;99.90
44833;DHT22;30569;51.252;9.830;2022-07-23T03:22:39;16.30;99.90
44833;DHT22;30569;51.252;9.830;2022-07-23T03:25:04;16.30;99.90
44833;DHT22;30569;51.252;9.830;2022-07-23T03:27:30;16.40;99.90
44833;DHT22;30569;51.252;9.830;2022-07-23T03:29:57;16.40;99.90
44833;DHT22;30569;51.252;9.830;2022-07-23T03:32:24;16.40;99.90
44833;DHT22;30569;51.252;9.830;2022-07-23T03:34:50;16.40;99.90
44833;DHT22;30569;51.252;9.830;2022-07-23T03:37:16;16.50;99.90
44833;DHT22;30569;51.252;9.830;2022-07-23T03:39:42;16.40;99.90
44833;DHT22;30569;51.252;9.830;2022-07-23T03:42:08;16.40;99.90
44833;DHT22;30569;51.252;9.830;2022-07-23T03:44:33;16.40;99.90
44833;DHT22;30569;51.252;9.830;2022-07-23T03:46:59;16.40;99.90
44833;DHT22;30569;51.252;9.830;2022-07-23T03:49:25;16.30;99.90
44833;DHT22;30569;51.252;9.830;2022-07-23T03:51:50;16.30;99.90
44833;DHT22;30569;51.252;9.830;2022-07-23T03:54:16;16.40;99.90
44833;DHT22;30569;51.252;9.830;2022-07-23T03:56:42;16.40;99.90
44833;DHT22;30569;51.252;9.830;2022-07-23T03:59:08;16.60;99.90
44833;DHT22;30569;51.252;9.830;2022-07-23T04:01:34;16.40;99.90
44833;DHT22;30569;51.252;9.830;2022-07-23T04:04:00;16.50;99.90
44833;DHT22;30569;51.252;9.830;2022-07-23T04:06:26;16.40;99.90
44833;DHT22;30569;51.252;9.830;2022-07-23T04:08:51;16.30;99.90
44833;DHT22;30569;51.252;9.830;2022-07-23T04:11:17;16.40;99.90
44833;DHT22;30569;51.252;9.830;2022-07-23T04:13:43;16.30;99.90
44833;DHT22;30569;51.252;9.830;2022-07-23T04:16:08;16.30;99.90
44833;DHT22;30569;51.252;9.830;2022-07-23T04:18:34;16.30;99.90
44833;DHT22;30569;51.252;9.830;2022-07-23T04:20:59;16.30;99.90
44833;DHT22;30569;51.252;9.830;2022-07-23T04:23:25;16.30;99.90
44833;DHT22;30569;51.252;9.830;2022-07-23T04:25:50;16.30;99.90
44833;DHT22;30569;51.252;9.830;2022-07-23T04:28:16;16.20;99.90
44833;DHT22;30569;51.252;9.830;2022-07-23T04:30:41;16.40;99.90
44833;DHT22;30569;51.252;9.830;2022-07-23T04:33:07;16.30;99.90
44833;DHT22;30569;51.252;9.830;2022-07-23T04:35:36;16.30;99.90
44833;DHT22;30569;51.252;9.830;2022-07-23T04:38:03;16.30;99.90
44833;DHT22;30569;51.252;9.830;2022-07-23T04:40:29;16.40;99.90
44833;DHT22;30569;51.252;9.830;2022-07-23T04:42:55;16.30;99.90
44833;DHT22;30569;51.252;9.830;2022-07-23T04:45:20;16.30;99.90
44833;DHT22;30569;51.252;9.830;2022-07-23T04:47:46;16.30;99.90
44833;DHT22;30569;51.252;9.830;2022-07-23T04:50:11;16.30;99.90
44833;DHT22;30569;51.252;9.830;2022-07-23T04:52:37;16.30;99.90
44833;DHT22;30569;51.252;9.830;2022-07-23T04:55:04;16.30;99.90
44833;DHT22;30569;51.252;9.830;2022-07-23T04:57:30;16.30;99.90
44833;DHT22;30569;51.252;9.830;2022-07-23T04:59:55;16.30;99.90
44833;DHT22;30569;51.252;9.830;2022-07-23T05:02:21;16.30;99.90
44833;DHT22;30569;51.252;9.830;2022-07-23T05:04:46;16.30;99.90
44833;DHT22;30569;51.252;9.830;2022-07-23T05:07:12;16.30;99.90
44833;DHT22;30569;51.252;9.830;2022-07-23T05:09:38;16.30;99.90
44833;DHT22;30569;51.252;9.830;2022-07-23T05:12:03;16.30;99.90
44833;DHT22;30569;51.252;9.830;2022-07-23T05:14:29;16.50;99.90
44833;DHT22;30569;51.252;9.830;2022-07-23T05:16:55;16.50;99.90
44833;DHT22;30569;51.252;9.830;2022-07-23T05:19:20;16.40;99.90
44833;DHT22;30569;51.252;9.830;2022-07-23T05:21:46;16.40;99.90
44833;DHT22;30569;51.252;9.830;2022-07-23T05:24:11;16.40;99.90
44833;DHT22;30569;51.252;9.830;2022-07-23T05:26:37;16.40;99.90
44833;DHT22;30569;51.252;9.830;2022-07-23T05:29:02;16.40;99.90
44833;DHT22;30569;51.252;9.830;2022-07-23T05:31:28;16.40;99.90
44833;DHT22;30569;51.252;9.830;2022-07-23T05:33:54;16.60;99.90
44833;DHT22;30569;51.252;9.830;2022-07-23T05:36:19;16.60;99.90
44833;DHT22;30569;51.252;9.830;2022-07-23T05:38:45;16.80;99.90
44833;DHT22;30569;51.252;9.830;2022-07-23T05:41:10;16.80;99.90
44833;DHT22;30569;51.252;9.830;2022-07-23T05:43:36;16.80;99.90
44833;DHT22;30569;51.252;9.830;2022-07-23T05:46:01;16.90;99.90
44833;DHT22;30569;51.252;9.830;2022-07-23T05:48:27;16.90;99.90
44833;DHT22;30569;51.252;9.830;2022-07-23T05:50:53;17.10;99.90
44833;DHT22;30569;51.252;9.830;2022-07-23T05:53:18;17.10;99.90
44833;DHT22;30569;51.252;9.830;2022-07-23T05:55:44;17.30;99.90
44833;DHT22;30569;51.252;9.830;2022-07-23T05:58:09;17.30;99.90
44833;DHT22;30569;51.252;9.830;2022-07-23T06:00:35;17.30;99.90
44833;DHT22;30569;51.252;9.830;2022-07-23T06:05:27;17.40;99.90
44833;DHT22;30569;51.252;9.830;2022-07-23T06:07:52;17.40;99.90
44833;DHT22;30569;51.252;9.830;2022-07-23T06:10:18;17.50;99.90
44833;DHT22;30569;51.252;9.830;2022-07-23T06:12:44;17.50;99.90
44833;DHT22;30569;51.252;9.830;2022-07-23T06:15:10;17.70;99.90
44833;DHT22;30569;51.252;9.830;2022-07-23T06:17:37;17.70;99.90
44833;DHT22;30569;51.252;9.830;2022-07-23T06:20:05;17.90;99.90
44833;DHT22;30569;51.252;9.830;2022-07-23T06:22:31;18.00;99.90
44833;DHT22;30569;51.252;9.830;2022-07-23T06:24:57;18.20;99.90
44833;DHT22;30569;51.252;9.830;2022-07-23T06:27:22;18.20;99.90
44833;DHT22;30569;51.252;9.830;2022-07-23T06:29:48;18.20;99.90
44833;DHT22;30569;51.252;9.830;2022-07-23T06:32:13;18.20;99.90
44833;DHT22;30569;51.252;9.830;2022-07-23T06:34:39;18.20;99.90
44833;DHT22;30569;51.252;9.830;2022-07-23T06:37:04;18.20;99.90
44833;DHT22;30569;51.252;9.830;2022-07-23T06:39:30;18.20;99.90
44833;DHT22;30569;51.252;9.830;2022-07-23T06:41:56;18.20;99.90
44833;DHT22;30569;51.252;9.830;2022-07-23T06:44:21;18.60;99.90
44833;DHT22;30569;51.252;9.830;2022-07-23T06:46:47;18.60;99.90
44833;DHT22;30569;51.252;9.830;2022-07-23T06:49:13;18.60;99.90
44833;DHT22;30569;51.252;9.830;2022-07-23T06:51:38;18.80;99.90
44833;DHT22;30569;51.252;9.830;2022-07-23T06:54:04;18.90;99.90
44833;DHT22;30569;51.252;9.830;2022-07-23T06:56:30;19.00;99.90
44833;DHT22;30569;51.252;9.830;2022-07-23T06:58:55;19.40;99.90
44833;DHT22;30569;51.252;9.830;2022-07-23T07:01:21;19.20;99.90
44833;DHT22;30569;51.252;9.830;2022-07-23T07:03:47;19.00;99.90
44833;DHT22;30569;51.252;9.830;2022-07-23T07:06:13;19.00;99.90
44833;DHT22;30569;51.252;9.830;2022-07-23T07:08:39;19.10;99.90
44833;DHT22;30569;51.252;9.830;2022-07-23T07:11:04;19.30;99.90
44833;DHT22;30569;51.252;9.830;2022-07-23T07:13:30;19.50;99.90
44833;DHT22;30569;51.252;9.830;2022-07-23T07:15:56;19.80;99.90
44833;DHT22;30569;51.252;9.830;2022-07-23T07:18:21;20.10;99.90
44833;DHT22;30569;51.252;9.830;2022-07-23T07:20:47;20.30;99.90
44833;DHT22;30569;51.252;9.830;2022-07-23T07:23:13;20.40;99.90
44833;DHT22;30569;51.252;9.830;2022-07-23T07:25:38;20.80;99.90
44833;DHT22;30569;51.252;9.830;2022-07-23T07:28:04;20.80;99.90
44833;DHT22;30569;51.252;9.830;2022-07-23T07:30:30;20.90;99.90
44833;DHT22;30569;51.252;9.830;2022-07-23T07:32:55;21.20;99.90
44833;DHT22;30569;51.252;9.830;2022-07-23T07:35:21;21.20;99.90
44833;DHT22;30569;51.252;9.830;2022-07-23T07:37:46;21.20;99.90
44833;DHT22;30569;51.252;9.830;2022-07-23T07:40:12;21.20;99.90
44833;DHT22;30569;51.252;9.830;2022-07-23T07:42:48;21.40;99.90
44833;DHT22;30569;51.252;9.830;2022-07-23T07:45:14;21.50;99.90
44833;DHT22;30569;51.252;9.830;2022-07-23T07:47:41;21.50;99.90
44833;DHT22;30569;51.252;9.830;2022-07-23T07:50:07;21.70;99.90
44833;DHT22;30569;51.252;9.830;2022-07-23T07:52:34;21.80;99.90
44833;DHT22;30569;51.252;9.830;2022-07-23T07:55:02;21.50;99.90
44833;DHT22;30569;51.252;9.830;2022-07-23T07:57:28;21.50;99.90
44833;DHT22;30569;51.252;9.830;2022-07-23T07:59:54;21.60;99.90
44833;DHT22;30569;51.252;9.830;2022-07-23T08:02:19;21.80;99.90
44833;DHT22;30569;51.252;9.830;2022-07-23T08:04:45;22.30;99.90
44833;DHT22;30569;51.252;9.830;2022-07-23T08:07:10;22.40;99.90
44833;DHT22;30569;51.252;9.830;2022-07-23T08:09:36;22.70;99.90
44833;DHT22;30569;51.252;9.830;2022-07-23T08:12:01;22.80;99.90
44833;DHT22;30569;51.252;9.830;2022-07-23T08:14:27;23.10;99.00
44833;DHT22;30569;51.252;9.830;2022-07-23T08:16:52;23.10;99.10
44833;DHT22;30569;51.252;9.830;2022-07-23T08:19:18;23.30;99.20
44833;DHT22;30569;51.252;9.830;2022-07-23T08:21:43;23.60;99.90
44833;DHT22;30569;51.252;9.830;2022-07-23T08:24:09;23.90;96.20
44833;DHT22;30569;51.252;9.830;2022-07-23T08:26:34;23.90;96.30
44833;DHT22;30569;51.252;9.830;2022-07-23T08:29:00;23.80;97.30
44833;DHT22;30569;51.252;9.830;2022-07-23T08:31:25;23.50;98.50
44833;DHT22;30569;51.252;9.830;2022-07-23T08:33:51;23.60;97.70
44833;DHT22;30569;51.252;9.830;2022-07-23T08:36:17;23.50;98.50
44833;DHT22;30569;51.252;9.830;2022-07-23T08:38:43;23.40;98.00
44833;DHT22;30569;51.252;9.830;2022-07-23T08:41:09;23.40;97.30
44833;DHT22;30569;51.252;9.830;2022-07-23T08:43:34;23.20;98.50
44833;DHT22;30569;51.252;9.830;2022-07-23T08:46:03;23.10;99.40
44833;DHT22;30569;51.252;9.830;2022-07-23T08:48:31;23.10;99.90
44833;DHT22;30569;51.252;9.830;2022-07-23T08:50:59;23.70;97.00
44833;DHT22;30569;51.252;9.830;2022-07-23T08:53:26;23.90;96.90
44833;DHT22;30569;51.252;9.830;2022-07-23T08:56:00;24.30;97.20
44833;DHT22;30569;51.252;9.830;2022-07-23T08:58:29;24.70;95.20
44833;DHT22;30569;51.252;9.830;2022-07-23T09:00:56;25.60;93.70
44833;DHT22;30569;51.252;9.830;2022-07-23T09:03:27;26.20;92.90
44833;DHT22;30569;51.252;9.830;2022-07-23T09:05:54;26.60;92.50
44833;DHT22;30569;51.252;9.830;2022-07-23T09:08:25;26.60;93.20
44833;DHT22;30569;51.252;9.830;2022-07-23T09:10:59;26.70;90.70
44833;DHT22;30569;51.252;9.830;2022-07-23T09:15:51;27.80;85.10
44833;DHT22;30569;51.252;9.830;2022-07-23T09:18:17;28.10;84.10
44833;DHT22;30569;51.252;9.830;2022-07-23T09:20:44;28.10;84.40
44833;DHT22;30569;51.252;9.830;2022-07-23T09:23:09;28.20;86.10
44833;DHT22;30569;51.252;9.830;2022-07-23T09:25:35;27.10;84.50
44833;DHT22;30569;51.252;9.830;2022-07-23T09:28:00;26.70;85.70
44833;DHT22;30569;51.252;9.830;2022-07-23T09:30:30;26.30;88.90
44833;DHT22;30569;51.252;9.830;2022-07-23T09:33:14;26.10;92.00
44833;DHT22;30569;51.252;9.830;2022-07-23T09:35:44;27.10;92.10
44833;DHT22;30569;51.252;9.830;2022-07-23T09:38:10;27.70;91.20
44833;DHT22;30569;51.252;9.830;2022-07-23T09:40:35;28.50;82.60
44833;DHT22;30569;51.252;9.830;2022-07-23T09:43:01;27.80;83.00
44833;DHT22;30569;51.252;9.830;2022-07-23T09:45:26;26.60;86.60
44833;DHT22;30569;51.252;9.830;2022-07-23T09:48:13;26.20;88.20
44833;DHT22;30569;51.252;9.830;2022-07-23T09:50:43;25.80;91.00
44833;DHT22;30569;51.252;9.830;2022-07-23T09:53:09;25.90;86.00
44833;DHT22;30569;51.252;9.830;2022-07-23T09:55:36;25.80;84.80
44833;DHT22;30569;51.252;9.830;2022-07-23T09:58:06;25.50;89.90
44833;DHT22;30569;51.252;9.830;2022-07-23T10:00:38;25.20;91.40
44833;DHT22;30569;51.252;9.830;2022-07-23T10:03:06;24.40;92.80
44833;DHT22;30569;51.252;9.830;2022-07-23T10:05:33;24.20;90.80
44833;DHT22;30569;51.252;9.830;2022-07-23T10:08:01;23.90;93.40
44833;DHT22;30569;51.252;9.830;2022-07-23T10:10:27;23.90;92.40
44833;DHT22;30569;51.252;9.830;2022-07-23T10:12:55;23.90;90.80
44833;DHT22;30569;51.252;9.830;2022-07-23T10:15:36;24.30;92.60
44833;DHT22;30569;51.252;9.830;2022-07-23T10:18:02;24.60;93.50
44833;DHT22;30569;51.252;9.830;2022-07-23T10:20:28;24.40;94.20
44833;DHT22;30569;51.252;9.830;2022-07-23T10:26:05;23.90;91.10
44833;DHT22;30569;51.252;9.830;2022-07-23T10:31:38;24.20;93.80
44833;DHT22;30569;51.252;9.830;2022-07-23T10:36:53;24.70;90.10
44833;DHT22;30569;51.252;9.830;2022-07-23T10:41:47;24.40;91.70
44833;DHT22;30569;51.252;9.830;2022-07-23T10:44:18;24.40;92.90
44833;DHT22;30569;51.252;9.830;2022-07-23T10:46:59;24.40;93.20
44833;DHT22;30569;51.252;9.830;2022-07-23T10:49:31;24.70;90.20
44833;DHT22;30569;51.252;9.830;2022-07-23T10:54:39;25.00;87.80
44833;DHT22;30569;51.252;9.830;2022-07-23T11:02:38;25.30;91.40
44833;DHT22;30569;51.252;9.830;2022-07-23T11:05:06;25.10;85.50
44833;DHT22;30569;51.252;9.830;2022-07-23T11:08:17;25.20;86.10
44833;DHT22;30569;51.252;9.830;2022-07-23T11:10:38;25.30;86.60
44833;DHT22;30569;51.252;9.830;2022-07-23T11:13:26;25.40;85.50
44833;DHT22;30569;51.252;9.830;2022-07-23T11:32:03;25.50;80.90
44833;DHT22;30569;51.252;9.830;2022-07-23T11:37:02;25.50;86.10
44833;DHT22;30569;51.252;9.830;2022-07-23T11:39:30;25.30;83.60
44833;DHT22;30569;51.252;9.830;2022-07-23T11:41:58;25.30;83.30
44833;DHT22;30569;51.252;9.830;2022-07-23T11:44:29;25.20;82.70
44833;DHT22;30569;51.252;9.830;2022-07-23T11:46:59;25.20;80.70
44833;DHT22;30569;51.252;9.830;2022-07-23T11:49:26;25.40;81.60
44833;DHT22;30569;51.252;9.830;2022-07-23T11:52:12;25.30;79.40
44833;DHT22;30569;51.252;9.830;2022-07-23T11:54:49;25.50;78.50
44833;DHT22;30569;51.252;9.830;2022-07-23T11:57:16;25.60;77.30
44833;DHT22;30569;51.252;9.830;2022-07-23T11:59:43;25.40;81.90
44833;DHT22;30569;51.252;9.830;2022-07-23T12:02:11;25.30;82.00
44833;DHT22;30569;51.252;9.830;2022-07-23T12:04:47;25.20;78.90
44833;DHT22;30569;51.252;9.830;2022-07-23T12:09:51;25.60;80.60
44833;DHT22;30569;51.252;9.830;2022-07-23T12:12:17;25.70;79.60
44833;DHT22;30569;51.252;9.830;2022-07-23T12:14:57;25.10;81.00
44833;DHT22;30569;51.252;9.830;2022-07-23T12:17:29;25.10;83.40
44833;DHT22;30569;51.252;9.830;2022-07-23T12:19:56;25.30;80.10
44833;DHT22;30569;51.252;9.830;2022-07-23T12:22:24;25.60;84.60
44833;DHT22;30569;51.252;9.830;2022-07-23T12:25:02;25.40;78.30
44833;DHT22;30569;51.252;9.830;2022-07-23T12:27:28;25.30;77.30
44833;DHT22;30569;51.252;9.830;2022-07-23T12:29:54;25.40;78.50
44833;DHT22;30569;51.252;9.830;2022-07-23T12:32:28;25.40;77.10
44833;DHT22;30569;51.252;9.830;2022-07-23T12:35:08;25.50;76.30
44833;DHT22;30569;51.252;9.830;2022-07-23T12:37:39;25.50;76.00
44833;DHT22;30569;51.252;9.830;2022-07-23T12:40:24;25.50;76.10
44833;DHT22;30569;51.252;9.830;2022-07-23T12:42:59;25.40;78.30
44833;DHT22;30569;51.252;9.830;2022-07-23T12:45:26;25.30;76.40
44833;DHT22;30569;51.252;9.830;2022-07-23T12:47:56;25.50;75.40
44833;DHT22;30569;51.252;9.830;2022-07-23T12:50:34;25.70;77.70
44833;DHT22;30569;51.252;9.830;2022-07-23T12:55:57;25.50;76.30
44833;DHT22;30569;51.252;9.830;2022-07-23T12:58:25;25.50;76.30
44833;DHT22;30569;51.252;9.830;2022-07-23T13:01:03;25.60;75.50
44833;DHT22;30569;51.252;9.830;2022-07-23T13:03:36;25.80;76.50
44833;DHT22;30569;51.252;9.830;2022-07-23T13:06:03;25.80;72.60
44833;DHT22;30569;51.252;9.830;2022-07-23T13:08:30;25.50;80.70
44833;DHT22;30569;51.252;9.830;2022-07-23T13:10:57;25.20;80.70
44833;DHT22;30569;51.252;9.830;2022-07-23T13:13:25;25.40;78.20
44833;DHT22;30569;51.252;9.830;2022-07-23T13:15:51;25.70;74.20
44833;DHT22;30569;51.252;9.830;2022-07-23T13:18:18;25.70;73.90
44833;DHT22;30569;51.252;9.830;2022-07-23T13:20:45;25.80;76.30
44833;DHT22;30569;51.252;9.830;2022-07-23T13:23:11;25.80;78.40
44833;DHT22;30569;51.252;9.830;2022-07-23T13:25:37;25.40;76.70
44833;DHT22;30569;51.252;9.830;2022-07-23T13:28:03;25.60;75.40
44833;DHT22;30569;51.252;9.830;2022-07-23T13:30:29;25.50;77.00
44833;DHT22;30569;51.252;9.830;2022-07-23T13:32:55;25.50;75.10
44833;DHT22;30569;51.252;9.830;2022-07-23T13:35:21;25.60;76.80
44833;DHT22;30569;51.252;9.830;2022-07-23T13:37:46;25.80;75.40
44833;DHT22;30569;51.252;9.830;2022-07-23T13:40:12;25.50;75.90
44833;DHT22;30569;51.252;9.830;2022-07-23T13:42:37;25.50;77.80
44833;DHT22;30569;51.252;9.830;2022-07-23T13:45:04;25.60;73.70
44833;DHT22;30569;51.252;9.830;2022-07-23T13:47:31;25.80;74.40
44833;DHT22;30569;51.252;9.830;2022-07-23T13:49:56;25.90;74.20
44833;DHT22;30569;51.252;9.830;2022-07-23T13:52:22;26.00;72.90
44833;DHT22;30569;51.252;9.830;2022-07-23T13:54:48;25.80;75.70
44833;DHT22;30569;51.252;9.830;2022-07-23T13:57:13;25.90;74.70
44833;DHT22;30569;51.252;9.830;2022-07-23T13:59:39;26.10;76.60
44833;DHT22;30569;51.252;9.830;2022-07-23T14:02:05;26.20;71.50
44833;DHT22;30569;51.252;9.830;2022-07-23T14:04:31;26.10;74.90
44833;DHT22;30569;51.252;9.830;2022-07-23T14:06:57;26.10;74.10
44833;DHT22;30569;51.252;9.830;2022-07-23T14:09:22;26.10;73.00
44833;DHT22;30569;51.252;9.830;2022-07-23T14:11:48;25.90;74.70
44833;DHT22;30569;51.252;9.830;2022-07-23T14:14:16;25.80;73.70
44833;DHT22;30569;51.252;9.830;2022-07-23T14:16:42;25.80;74.10
44833;DHT22;30569;51.252;9.830;2022-07-23T14:19:08;25.80;72.40
44833;DHT22;30569;51.252;9.830;2022-07-23T14:21:34;26.00;71.80
44833;DHT22;30569;51.252;9.830;2022-07-23T14:23:59;26.00;72.60
44833;DHT22;30569;51.252;9.830;2022-07-23T14:26:25;26.00;71.10
44833;DHT22;30569;51.252;9.830;2022-07-23T14:28:51;26.00;75.10
44833;DHT22;30569;51.252;9.830;2022-07-23T14:31:16;26.20;72.50
44833;DHT22;30569;51.252;9.830;2022-07-23T14:33:42;26.00;73.40
44833;DHT22;30569;51.252;9.830;2022-07-23T14:36:08;26.20;72.00
44833;DHT22;30569;51.252;9.830;2022-07-23T14:38:33;26.30;71.20
44833;DHT22;30569;51.252;9.830;2022-07-23T14:40:59;26.10;71.70
44833;DHT22;30569;51.252;9.830;2022-07-23T14:43:24;26.00;75.70
44833;DHT22;30569;51.252;9.830;2022-07-23T14:45:50;26.00;74.20
44833;DHT22;30569;51.252;9.830;2022-07-23T14:48:15;26.00;72.60
44833;DHT22;30569;51.252;9.830;2022-07-23T14:50:41;26.30;72.70
44833;DHT22;30569;51.252;9.830;2022-07-23T14:53:06;26.30;72.50
44833;DHT22;30569;51.252;9.830;2022-07-23T14:55:32;26.20;73.70
44833;DHT22;30569;51.252;9.830;2022-07-23T14:57:58;26.20;74.70
44833;DHT22;30569;51.252;9.830;2022-07-23T15:00:24;26.10;71.20
44833;DHT22;30569;51.252;9.830;2022-07-23T15:02:53;26.30;69.50
44833;DHT22;30569;51.252;9.830;2022-07-23T15:05:19;26.10;71.60
44833;DHT22;30569;51.252;9.830;2022-07-23T15:07:45;26.10;72.50
44833;DHT22;30569;51.252;9.830;2022-07-23T15:10:11;26.10;69.10
44833;DHT22;30569;51.252;9.830;2022-07-23T15:12:37;26.30;68.50
44833;DHT22;30569;51.252;9.830;2022-07-23T15:15:03;26.30;67.40
44833;DHT22;30569;51.252;9.830;2022-07-23T15:17:29;26.30;67.70
44833;DHT22;30569;51.252;9.830;2022-07-23T15:19:55;26.50;67.70
44833;DHT22;30569;51.252;9.830;2022-07-23T15:22:20;26.00;69.50
44833;DHT22;30569;51.252;9.830;2022-07-23T15:24:46;26.00;68.10
44833;DHT22;30569;51.252;9.830;2022-07-23T15:27:12;26.10;68.50
44833;DHT22;30569;51.252;9.830;2022-07-23T15:29:37;26.20;68.20
44833;DHT22;30569;51.252;9.830;2022-07-23T15:32:03;26.30;68.00
44833;DHT22;30569;51.252;9.830;2022-07-23T15:34:29;26.30;68.00
44833;DHT22;30569;51.252;9.830;2022-07-23T15:36:55;26.30;69.10
44833;DHT22;30569;51.252;9.830;2022-07-23T15:39:21;26.10;69.60
44833;DHT22;30569;51.252;9.830;2022-07-23T15:41:47;26.10;67.60
44833;DHT22;30569;51.252;9.830;2022-07-23T15:44:12;25.80;67.60
44833;DHT22;30569;51.252;9.830;2022-07-23T15:46:38;25.80;70.70
44833;DHT22;30569;51.252;9.830;2022-07-23T15:49:04;26.00;68.70
44833;DHT22;30569;51.252;9.830;2022-07-23T15:51:29;25.80;70.90
44833;DHT22;30569;51.252;9.830;2022-07-23T15:53:56;26.10;66.60
44833;DHT22;30569;51.252;9.830;2022-07-23T15:56:22;26.00;68.10
44833;DHT22;30569;51.252;9.830;2022-07-23T15:58:47;26.00;69.30
44833;DHT22;30569;51.252;9.830;2022-07-23T16:01:13;26.00;68.70
44833;DHT22;30569;51.252;9.830;2022-07-23T16:03:38;26.10;68.40
44833;DHT22;30569;51.252;9.830;2022-07-23T16:06:05;26.00;69.30
44833;DHT22;30569;51.252;9.830;2022-07-23T16:08:31;26.00;67.80
44833;DHT22;30569;51.252;9.830;2022-07-23T16:10:57;25.80;69.10
44833;DHT22;30569;51.252;9.830;2022-07-23T16:13:24;25.60;68.30
44833;DHT22;30569;51.252;9.830;2022-07-23T16:15:50;25.60;70.00
44833;DHT22;30569;51.252;9.830;2022-07-23T16:18:16;25.70;69.80